Total volume
$9,405
Trades
601
Unique wallets
312
Liquidity
$8,167
Latest YES mid
41¢
Latest NO mid
59¢
End date
2026-05-09
First seen
2026-05-09
last 05-09 19:28
Cohort breakdown
who's buying — by wallet tier SMI: -4.0¢ (top1%: 2% YES on $994 vs crowd: 6% YES on $8.9K)
By volume tier
Tier Wallets YES buy NO buy Net bias
🐬 Dolphin 3 $68 $302 $234
🐟 Fish 28 $16 $4.4K $4.3K
🦐 Shrimp 281 $481 $3.7K $3.2K
By P&L percentile
Tier Wallets YES buy NO buy Net bias
🎯 Top 1% 15 $23 $971 $948
🏆 Top 5% 48 $162 $3.5K $3.3K
✅ Top 10% 27 $13 $477 $464
Median 80 $60 $1.1K $1.0K
Below median 48 $45 $419 $373
⚠️ Bottom 10% 25 $20 $799 $780
🔻 Bottom 5% 19 $26 $962 $936
💀 Bottom 1% 4 $119 $106 +$13
unranked 46 $97 $64 +$33
Wallet Side Net shares Cost basis Volume Trades Last activity
Athletic-Illusion 0x875a…7816 Up +2,426 $94 $94 5 05-09 19:27
Pungent-Activist 0x8b60…94d1 Up +1,837 $58 $58 3 05-09 19:27
Empty-Annual 0xf08c…3295 Up +1,250 $25 $25 1 05-09 19:27
Cumbersome-Doctrine 0xda3f…655e Down +1,212 $1,200 $1,200 1 05-09 19:27
True-Monk 0x0c8e…d8fc Up +893 $25 $25 3 05-09 19:28
Young-Attempt 0xe566…5d3c Up +828 $25 $25 5 05-09 19:28
Studious-Reality 0x167a…d542 Down +737 $712 $712 57 05-09 19:27
Chief-Earth 0xf9e5…4a82 Down +515 $502 $502 10 05-09 19:28
Impassioned-Debate 0x9471…bae7 Up +500 $10 $10 1 05-09 19:27
Unaware-Refectory 0xc49e…0af7 Down +500 $485 $485 1 05-09 19:27
Faithful-Respite 0x5182…0120 Down +500 $485 $485 1 05-09 19:27
Linear-Blow 0x5b40…0860 Up +417 $15 $15 2 05-09 19:27
Unfolded-Millimeter 0x7842…06b9 Up +383 $16 $16 3 05-09 19:27
Gigantic-Glee 0xf410…ee39 Up +333 $10 $10 1 05-09 19:28
Striking-Lifetime 0xea7a…eedb Up +316 $10 $10 1 05-09 19:27
Humongous-Character 0x34e6…9b74 Down +300 $297 $297 1 05-09 19:27
Ragged-Bulb 0xe5cc…cae7 Up +290 $15 $15 2 05-09 19:27
Vigorous-Conservative 0x902e…366e Up +276 $11 $11 3 05-09 19:27
Noxious-Kill 0x42bd…e6ff Up +250 $5 $5 1 05-09 19:27
Frightening-Instruction 0x0f81…7dce Up +250 $5 $5 1 05-09 19:27
Colorless-Stream 0x07b1…d0a1 Up +250 $5 $5 1 05-09 19:27
Vengeful-Utilization 0x652c…2af0 Down +250 $236 $236 2 05-09 19:28
Lanky-Notepad 0x60f2…25df Up +226 $9 $9 1 05-09 19:28
Noisy-Death 0x2eb8…310f Down +225 $220 $220 1 05-09 19:27
Monstrous-Dew 0x5b63…11a4 Up +222 $9 $9 2 05-09 19:28
Absolute-Sneaker 0xf738…cbdf Up +213 $4 $4 1 05-09 19:27
Ultimate-Headphones 0x8858…8641 Down +211 $200 $200 1 05-09 19:27
Little-Fraction 0xcfb1…f694 Up +209 $4 $4 1 05-09 19:27
Little-Fraction 0xcfb1…f694 Down +209 $196 $196 1 05-09 19:26
Vengeful-Utilization 0x652c…2af0 Up +200 $4 $4 1 05-09 19:28
(anonymous) 0xe907…cff6 Down +198 $94 $118 6 05-09 19:27
Funny-Bat 0x3630…3f8f Up +180 $9 $9 36 05-09 19:27
Funny-Bat 0x3630…3f8f Down +180 $173 $173 36 05-09 19:27
Informal-Picturesque 0x06f8…a8e0 Up +167 $5 $5 1 05-09 19:27
Ripe-Rescue 0xdc14…f347 Up +165 $5 $5 1 05-09 19:27
Pale-Raid 0x7024…4c4c Up +160 $3 $3 2 05-09 19:27
Raw-Dissonance 0x5052…6c4a Up +160 $5 $5 1 05-09 19:27
Negligible-Judge-Slot 0x8aec…53e6 Up +156 $5 $5 6 05-09 19:28
Focused-Shear 0x07b4…6b05 Up +155 $10 $10 2 05-09 19:27
Puny-Cap 0xed00…0729 Up +150 $6 $6 2 05-09 19:27
Instructive-Exwife 0x52dc…6617 Down +150 $146 $146 1 05-09 19:28
Radiant-Spy 0xe89e…0600 Up +139 $3 $3 1 05-09 19:28
Imaginative-Duty-Improvement 0xa8dd…e770 Up +133 $4 $4 3 05-09 19:28
Joyful-Season 0xe979…7ca4 Down +123 $117 $117 2 05-09 19:27
Grandiose-Customer 0x8273…42b1 Down +111 $110 $110 5 05-09 19:27
Finished-Beach 0x2fc7…f77a Down +110 $108 $108 1 05-09 19:27
High-Level-Sir 0x7f5d…de70 Down +103 $100 $100 1 05-09 19:28
Leafy-Spotlight 0xeac7…953d Down +102 $100 $100 1 05-09 19:27
Revolving-Codepage 0x75ab…b20e Down +102 $100 $100 1 05-09 19:28
Sudden-Vengeance 0x9df9…4d73 Down +101 $100 $100 1 05-09 19:27
Worldly-Amazement 0x1c33…4f3b Down +100 $97 $97 1 05-09 19:27
Knowledgeable-Salt 0x8dd3…c142 Down +100 $97 $97 1 05-09 19:27
Questionable-Survival 0x20d1…75db Down +100 $99 $99 1 05-09 19:28
Hollow-Antique 0xb95a…3ae2 Down +100 $97 $97 1 05-09 19:27
Acrobatic-Dream 0x9b6f…7fb9 Down +80 $78 $78 1 05-09 19:27
Writhing-Praise 0xf3fd…9e61 Down +76 $72 $72 3 05-09 19:27
Sentimental-Differential 0x510a…d77f Down +75 $72 $72 10 05-09 19:27
Angry-Suede 0x8692…fbac Down +70 $68 $68 14 05-09 19:27
Identical-Childhood 0x3654…1b78 Down +64 $61 $61 2 05-09 19:27
Slight-Goodnight 0x6088…f361 Down +60 $56 $56 1 05-09 19:26